Time;durP1;ratioP1;P1;durP2;ratioP2;P2;SDS_P1;SDS_P2;PMS_P1;PMS_P2;Temp;Humidity;BMP_temperature;BMP_pressure;BME280_temperature;BME280_humidity;BME280_pressure;Samples;Min_cycle;Max_cycle;Signal;HPM_P1;HPM_P2
2021/12/21 00:01:37;;;;;;;4.72;4.07;;;21.60;72.40;;;;;;10532469;28;20483;-67
2021/12/21 00:06:40;;;;;;;5.68;4.35;;;21.60;72.40;;;;;;10541446;28;20139;-67
2021/12/21 00:11:41;;;;;;;4.45;3.63;;;21.60;72.40;;;;;;10541059;28;20044;-67
2021/12/21 00:17:01;;;;;;;4.70;3.90;;;21.60;72.30;;;;;;10541106;28;20048;-67
2021/12/21 00:22:08;;;;;;;4.85;3.78;;;21.60;72.30;;;;;;10540768;28;20048;-67
2021/12/21 00:27:10;;;;;;;3.92;3.45;;;21.60;72.20;;;;;;10535202;28;20043;-67
2021/12/21 00:32:11;;;;;;;4.30;3.72;;;21.60;72.30;;;;;;10515323;28;20048;-67
2021/12/21 00:37:13;;;;;;;4.10;3.65;;;21.60;72.20;;;;;;10540434;28;20452;-67
2021/12/21 00:42:14;;;;;;;5.15;3.78;;;21.60;72.20;;;;;;10525896;28;20055;-67
2021/12/21 00:47:16;;;;;;;4.25;3.67;;;21.60;72.10;;;;;;10537998;28;20044;-67
2021/12/21 00:52:17;;;;;;;4.30;3.70;;;21.60;72.10;;;;;;10540024;28;20493;-67
2021/12/21 00:57:19;;;;;;;3.80;3.40;;;21.60;72.10;;;;;;10539748;28;20047;-67
2021/12/21 01:02:20;;;;;;;4.40;3.80;;;21.60;72.00;;;;;;10539054;28;20073;-67
2021/12/21 01:07:28;;;;;;;4.40;3.45;;;21.60;72.60;;;;;;10538910;28;20048;-67
2021/12/21 01:12:44;;;;;;;4.30;3.80;;;21.60;71.90;;;;;;10534780;28;20048;-67
2021/12/21 01:17:54;;;;;;;5.27;4.10;;;21.60;71.90;;;;;;10529636;28;20048;-66
2021/12/21 01:23:14;;;;;;;4.15;3.53;;;21.60;71.90;;;;;;10538819;28;20047;-66
2021/12/21 01:28:22;;;;;;;4.10;3.22;;;21.60;71.80;;;;;;10509244;28;20064;-66
2021/12/21 01:33:39;;;;;;;4.03;3.38;;;21.60;71.90;;;;;;10537620;28;20586;-66
2021/12/21 01:38:49;;;;;;;3.92;3.30;;;21.60;71.80;;;;;;10537955;28;20393;-67
2021/12/21 01:44:01;;;;;;;3.65;3.17;;;21.60;71.70;;;;;;10537329;28;20044;-66
2021/12/21 01:54:22;;;;;;;4.65;3.33;;;21.60;71.70;;;;;;10536457;28;20036;-66
2021/12/21 01:59:24;;;;;;;4.55;3.60;;;21.60;71.60;;;;;;10536803;28;20043;-66
2021/12/21 02:04:25;;;;;;;4.10;3.30;;;21.60;71.60;;;;;;10536785;28;20048;-66
2021/12/21 02:09:36;;;;;;;3.55;3.17;;;21.60;71.60;;;;;;10526836;28;20052;-66
2021/12/21 02:14:38;;;;;;;4.13;3.20;;;21.60;71.50;;;;;;10536101;28;20048;-67
2021/12/21 02:19:42;;;;;;;3.78;3.30;;;21.60;71.60;;;;;;10535752;28;20048;-66
2021/12/21 02:24:52;;;;;;;3.25;2.95;;;21.60;71.50;;;;;;10531796;28;20044;-66
2021/12/21 02:29:53;;;;;;;3.47;2.80;;;21.60;71.50;;;;;;10527266;28;20106;-66
2021/12/21 02:34:55;;;;;;;3.47;2.95;;;21.60;71.40;;;;;;10534074;28;20113;-67
2021/12/21 02:39:56;;;;;;;3.75;3.03;;;21.60;71.30;;;;;;10535135;28;20484;-66
2021/12/21 02:44:58;;;;;;;3.08;2.78;;;21.60;71.30;;;;;;10535588;28;20058;-66
2021/12/21 02:49:59;;;;;;;4.22;3.00;;;21.60;71.40;;;;;;10534553;28;20051;-66
2021/12/21 02:55:01;;;;;;;3.28;2.78;;;21.60;71.30;;;;;;10535696;28;20044;-66
2021/12/21 03:00:02;;;;;;;3.20;2.83;;;21.60;71.30;;;;;;10534239;28;20077;-66
2021/12/21 03:05:04;;;;;;;3.90;2.90;;;21.60;71.20;;;;;;10520378;28;20238;-66
2021/12/21 03:10:10;;;;;;;3.58;2.80;;;21.50;71.50;;;;;;10533791;28;20424;-66
2021/12/21 03:15:11;;;;;;;3.45;2.95;;;21.30;71.90;;;;;;10534242;28;20377;-66
2021/12/21 03:20:13;;;;;;;3.35;2.80;;;21.00;72.30;;;;;;10533517;28;20048;-67
2021/12/21 03:25:14;;;;;;;3.88;3.08;;;20.80;72.70;;;;;;10512639;28;20052;-67
2021/12/21 03:30:16;;;;;;;3.50;3.00;;;20.50;73.00;;;;;;10534368;28;20047;-67
2021/12/21 03:35:17;;;;;;;3.40;2.88;;;20.40;73.30;;;;;;10534039;28;20485;-67
2021/12/21 03:40:19;;;;;;;3.17;2.80;;;20.20;73.60;;;;;;10534240;28;20353;-66
2021/12/21 03:45:20;;;;;;;3.28;2.97;;;20.00;73.80;;;;;;10534395;28;20048;-66
2021/12/21 03:50:22;;;;;;;3.80;3.42;;;19.80;74.00;;;;;;10533787;28;20090;-66
2021/12/21 03:55:23;;;;;;;4.15;2.88;;;19.70;74.30;;;;;;10534165;28;20127;-66
2021/12/21 04:00:27;;;;;;;3.25;2.92;;;19.60;74.60;;;;;;10523133;28;20489;-66
2021/12/21 04:05:28;;;;;;;3.70;3.13;;;19.40;74.70;;;;;;10533206;28;20048;-67
2021/12/21 04:10:30;;;;;;;3.55;2.88;;;19.30;75.00;;;;;;10533207;28;20048;-66
2021/12/21 04:15:38;;;;;;;3.42;3.00;;;19.20;75.20;;;;;;10533290;28;20047;-66
2021/12/21 04:20:40;;;;;;;4.35;3.38;;;19.10;75.40;;;;;;10530371;28;20128;-66
2021/12/21 04:25:41;;;;;;;3.45;2.95;;;18.90;75.50;;;;;;10535876;28;20101;-66
2021/12/21 04:30:43;;;;;;;4.18;3.00;;;18.90;75.70;;;;;;10540360;28;20458;-66
2021/12/21 04:35:44;;;;;;;4.60;3.20;;;18.70;75.90;;;;;;10540509;28;20067;-66
2021/12/21 04:40:48;;;;;;;4.38;3.03;;;18.70;76.10;;;;;;10539553;28;20390;-66
2021/12/21 04:45:49;;;;;;;5.15;2.95;;;18.60;75.90;;;;;;10539522;28;20483;-66
2021/12/21 04:50:51;;;;;;;2.92;2.60;;;18.50;75.90;;;;;;10528409;28;20390;-66
2021/12/21 04:55:52;;;;;;;3.88;3.08;;;18.40;75.70;;;;;;10538399;28;20047;-66
2021/12/21 05:00:54;;;;;;;3.92;2.85;;;18.40;75.90;;;;;;10539552;28;20097;-66
2021/12/21 05:05:55;;;;;;;3.65;2.75;;;18.30;75.60;;;;;;10538507;28;20056;-67
2021/12/21 05:11:00;;;;;;;3.13;2.50;;;18.30;75.60;;;;;;10539139;28;20048;-66
2021/12/21 05:16:01;;;;;;;3.22;2.60;;;18.20;75.50;;;;;;10536069;28;20044;-66
2021/12/21 05:21:03;;;;;;;3.08;2.50;;;18.20;75.50;;;;;;10526011;28;20052;-66
2021/12/21 05:26:04;;;;;;;3.78;2.63;;;18.20;75.30;;;;;;10538658;28;20044;-66
2021/12/21 05:31:06;;;;;;;3.20;2.80;;;18.20;75.30;;;;;;10537966;28;20040;-66
2021/12/21 05:36:07;;;;;;;3.38;2.70;;;18.20;75.20;;;;;;10538286;28;20048;-66
2021/12/21 05:41:16;;;;;;;3.67;2.85;;;18.20;75.20;;;;;;10538033;28;20052;-66
2021/12/21 05:46:18;;;;;;;2.83;2.50;;;18.20;75.00;;;;;;10526853;28;20056;-66
2021/12/21 05:51:19;;;;;;;3.45;2.63;;;18.10;75.10;;;;;;10536795;28;20044;-66
2021/12/21 05:56:21;;;;;;;2.80;2.38;;;18.10;74.90;;;;;;10537647;28;20040;-66
2021/12/21 06:01:22;;;;;;;3.03;2.70;;;18.10;75.00;;;;;;10536131;28;20500;-66
2021/12/21 06:06:24;;;;;;;3.90;2.70;;;18.10;74.80;;;;;;10518217;28;20049;-66
2021/12/21 06:11:25;;;;;;;2.72;2.20;;;18.10;74.70;;;;;;10520424;28;20048;-66
2021/12/21 06:22:44;;;;;;;3.53;2.38;;;18.10;74.70;;;;;;10535270;28;20535;-66
2021/12/21 06:27:10;;;;;;;3.33;2.20;;;18.10;74.60;;;;;;10528087;28;20052;-66
2021/12/21 06:32:11;;;;;;;2.58;2.38;;;18.00;74.30;;;;;;10536084;28;20044;-66
2021/12/21 06:37:13;;;;;;;2.90;2.58;;;18.10;74.30;;;;;;10536094;28;20044;-66
2021/12/21 06:42:14;;;;;;;2.60;2.40;;;18.10;74.20;;;;;;10525078;28;20160;-66
2021/12/21 06:52:35;;;;;;;2.90;2.40;;;18.10;74.10;;;;;;10535320;28;20032;-66
2021/12/21 06:57:39;;;;;;;2.60;2.40;;;18.10;74.00;;;;;;10535074;28;20507;-66
2021/12/21 07:02:41;;;;;;;3.10;2.40;;;18.10;73.90;;;;;;10530485;28;20044;-65
2021/12/21 07:07:42;;;;;;;2.50;2.28;;;18.10;73.90;;;;;;10534458;28;20070;-66
2021/12/21 07:18:11;;;;;;;2.70;2.38;;;18.10;73.80;;;;;;10520685;28;20060;-66
2021/12/21 07:23:12;;;;;;;3.58;2.70;;;18.10;73.70;;;;;;10532490;28;20416;-65
2021/12/21 07:28:13;;;;;;;3.55;2.35;;;18.10;73.60;;;;;;10528159;28;20393;-66
2021/12/21 07:33:15;;;;;;;3.38;2.50;;;18.10;73.60;;;;;;10534263;28;20047;-66
2021/12/21 07:38:17;;;;;;;3.08;2.30;;;18.10;73.40;;;;;;10533978;28;20044;-66
2021/12/21 07:43:19;;;;;;;3.08;2.28;;;18.10;73.40;;;;;;10534354;28;20047;-66
2021/12/21 07:48:20;;;;;;;3.08;2.40;;;18.10;73.40;;;;;;10533764;28;20050;-66
2021/12/21 07:53:22;;;;;;;2.95;2.05;;;18.10;73.30;;;;;;10535507;28;20044;-66
2021/12/21 07:58:29;;;;;;;3.30;2.70;;;18.10;73.30;;;;;;10541473;28;20040;-66
2021/12/21 08:03:32;;;;;;;2.63;2.38;;;18.10;73.10;;;;;;10539325;28;20053;-66
2021/12/21 08:08:35;;;;;;;3.40;2.58;;;18.10;73.10;;;;;;10531727;28;20048;-66
2021/12/21 08:13:36;;;;;;;3.10;2.28;;;18.20;73.10;;;;;;10541382;28;20094;-66
2021/12/21 08:18:38;;;;;;;3.00;2.30;;;18.20;73.00;;;;;;10537364;28;20051;-66
2021/12/21 08:23:39;;;;;;;3.20;2.58;;;18.20;72.90;;;;;;10507091;28;20047;-66
2021/12/21 08:28:41;;;;;;;3.17;2.42;;;18.30;72.80;;;;;;10541078;28;20051;-66
2021/12/21 08:33:42;;;;;;;3.22;2.33;;;18.40;72.70;;;;;;10539946;28;20032;-65
2021/12/21 08:38:44;;;;;;;2.33;2.10;;;18.50;72.60;;;;;;10529796;28;20058;-65
2021/12/21 08:43:45;;;;;;;2.60;2.30;;;18.60;72.30;;;;;;10510113;28;20071;-65
2021/12/21 08:48:47;;;;;;;2.53;2.25;;;18.80;72.70;;;;;;10524867;28;20393;-65
2021/12/21 08:53:48;;;;;;;2.78;2.10;;;18.90;71.90;;;;;;10532163;28;20122;-65
2021/12/21 08:58:50;;;;;;;3.00;2.40;;;19.20;71.80;;;;;;10509126;28;20048;-66
2021/12/21 09:03:52;;;;;;;5.10;2.13;;;19.40;71.60;;;;;;10493780;28;20044;-66
2021/12/21 09:08:54;;;;;;;4.53;2.15;;;19.60;71.60;;;;;;10506695;28;20455;-66
2021/12/21 09:13:56;;;;;;;5.07;2.45;;;19.80;71.60;;;;;;10507502;28;20393;-66
2021/12/21 09:18:57;;;;;;;3.05;2.10;;;19.90;71.60;;;;;;10518505;28;20053;-77
2021/12/21 09:23:59;;;;;;;3.95;2.08;;;20.00;71.90;;;;;;10533850;28;20048;-75
2021/12/21 09:29:00;;;;;;;4.75;2.00;;;20.00;72.10;;;;;;10519292;28;20056;-75
2021/12/21 09:34:02;;;;;;;3.45;2.00;;;19.90;72.20;;;;;;10515532;28;20088;-75
2021/12/21 09:39:03;;;;;;;2.20;1.80;;;19.90;72.30;;;;;;10522708;28;20052;-75
2021/12/21 09:44:05;;;;;;;3.65;2.05;;;19.90;72.40;;;;;;10533718;28;20705;-75
2021/12/21 09:49:06;;;;;;;4.70;2.03;;;19.90;72.40;;;;;;10533559;28;20101;-76
2021/12/21 09:54:08;;;;;;;3.55;1.88;;;19.90;72.50;;;;;;10533296;28;20052;-75
2021/12/21 09:59:10;;;;;;;3.40;1.73;;;19.90;72.70;;;;;;10532903;28;20040;-74
2021/12/21 10:04:11;;;;;;;2.35;1.73;;;19.90;72.80;;;;;;10515003;28;20049;-74
2021/12/21 10:09:13;;;;;;;3.53;1.88;;;19.90;72.90;;;;;;10529022;28;20052;-74
2021/12/21 10:14:15;;;;;;;2.60;1.73;;;19.90;73.00;;;;;;10536083;28;20044;-74
2021/12/21 10:19:17;;;;;;;3.33;1.67;;;19.90;72.90;;;;;;10534490;28;20044;-74
2021/12/21 10:24:18;;;;;;;3.67;1.67;;;19.90;73.00;;;;;;10509272;28;20047;-74
2021/12/21 10:29:21;;;;;;;3.03;2.15;;;19.90;72.90;;;;;;10536672;28;20051;-75
2021/12/21 10:34:26;;;;;;;3.13;1.80;;;19.80;72.80;;;;;;10526780;28;20447;-75
2021/12/21 10:39:28;;;;;;;2.40;1.80;;;19.80;72.90;;;;;;10495203;28;20051;-75
2021/12/21 10:44:30;;;;;;;2.85;1.80;;;19.80;72.80;;;;;;10494214;28;20048;-69
2021/12/21 10:49:31;;;;;;;3.10;2.00;;;19.80;72.80;;;;;;10492831;28;20051;-72
2021/12/21 10:54:32;;;;;;;6.57;2.10;;;19.80;72.80;;;;;;10525259;28;20048;-77
2021/12/21 10:59:34;;;;;;;2.83;1.85;;;19.70;72.80;;;;;;10534577;28;20044;-75
2021/12/21 11:04:36;;;;;;;4.00;1.98;;;19.70;72.50;;;;;;10535343;28;20063;-75
2021/12/21 11:09:37;;;;;;;5.43;2.20;;;19.60;72.20;;;;;;10515805;28;20500;-74
2021/12/21 11:14:38;;;;;;;4.07;2.08;;;19.60;72.20;;;;;;10524904;28;20405;-74
2021/12/21 11:19:40;;;;;;;3.97;2.10;;;19.60;72.30;;;;;;10534697;28;20516;-74
2021/12/21 11:24:41;;;;;;;2.53;1.58;;;19.60;72.40;;;;;;10504848;28;20059;-74
2021/12/21 11:29:43;;;;;;;2.65;1.77;;;19.60;72.60;;;;;;10539858;28;20051;-74
2021/12/21 11:35:08;;;;;;;3.92;1.70;;;19.60;72.60;;;;;;10532382;28;20052;-74
2021/12/21 11:40:07;;;;;;;2.28;1.52;;;19.60;72.70;;;;;;10501264;28;20517;-74
2021/12/21 11:45:09;;;;;;;3.53;1.50;;;19.60;72.80;;;;;;10501291;28;20405;-74
2021/12/21 11:50:10;;;;;;;2.47;1.52;;;19.60;72.90;;;;;;10500792;28;20087;-74
2021/12/21 11:55:12;;;;;;;2.55;1.23;;;19.60;72.90;;;;;;10501062;28;20057;-74
2021/12/21 12:00:13;;;;;;;2.45;1.50;;;19.60;73.00;;;;;;10529626;28;20789;-74
2021/12/21 12:05:15;;;;;;;2.60;1.50;;;19.50;73.10;;;;;;10534470;28;20040;-73
2021/12/21 12:10:16;;;;;;;2.20;1.30;;;19.50;73.00;;;;;;10522503;28;20064;-73
2021/12/21 12:15:18;;;;;;;2.03;1.30;;;19.50;73.00;;;;;;10488560;28;20045;-73
2021/12/21 12:20:19;;;;;;;3.30;1.13;;;19.50;73.00;;;;;;10528337;28;20051;-73
2021/12/21 12:25:21;;;;;;;2.72;1.40;;;19.60;73.00;;;;;;10530206;28;20048;-73
2021/12/21 12:30:22;;;;;;;1.45;1.00;;;19.60;73.10;;;;;;10536968;28;20089;-73
2021/12/21 12:35:24;;;;;;;2.25;1.30;;;19.60;73.10;;;;;;10530750;28;20044;-73
2021/12/21 12:40:26;;;;;;;1.75;1.10;;;19.60;73.10;;;;;;10530423;28;20055;-73
2021/12/21 12:45:27;;;;;;;2.42;1.10;;;19.70;73.20;;;;;;10536554;28;20131;-73
2021/12/21 12:50:29;;;;;;;2.53;1.15;;;19.70;73.20;;;;;;10530740;28;20055;-73
2021/12/21 12:55:31;;;;;;;2.45;1.10;;;19.70;73.30;;;;;;10535686;28;20052;-73
2021/12/21 13:00:32;;;;;;;2.05;1.13;;;19.70;73.30;;;;;;10535276;28;20044;-74
2021/12/21 13:05:36;;;;;;;2.47;1.17;;;19.70;73.40;;;;;;10535225;28;20055;-73
2021/12/21 13:10:38;;;;;;;1.73;1.20;;;19.70;73.50;;;;;;10531155;28;20056;-73
2021/12/21 13:15:41;;;;;;;1.27;1.00;;;19.70;73.60;;;;;;10533058;28;20051;-74
2021/12/21 13:20:42;;;;;;;1.48;1.05;;;19.70;73.70;;;;;;10533776;28;20066;-73
2021/12/21 13:25:44;;;;;;;1.73;1.20;;;19.70;73.70;;;;;;10533629;28;20535;-73
2021/12/21 13:30:45;;;;;;;1.23;0.90;;;19.70;73.80;;;;;;10533670;28;20048;-73
2021/12/21 13:35:47;;;;;;;1.23;1.00;;;19.70;74.00;;;;;;10534640;28;20055;-73
2021/12/21 13:40:48;;;;;;;1.92;1.00;;;19.70;74.10;;;;;;10511241;28;20053;-73
2021/12/21 13:45:50;;;;;;;1.45;0.73;;;19.70;74.00;;;;;;10525644;28;20052;-73
2021/12/21 13:50:51;;;;;;;1.50;1.00;;;19.70;74.00;;;;;;10532972;28;20048;-73
2021/12/21 13:55:53;;;;;;;2.08;0.90;;;19.60;73.80;;;;;;10533447;28;20554;-73
2021/12/21 14:00:56;;;;;;;1.77;0.85;;;19.60;73.90;;;;;;10532867;28;20052;-73
2021/12/21 14:06:07;;;;;;;1.10;0.80;;;19.60;74.00;;;;;;10532057;28;20113;-73
2021/12/21 14:11:09;;;;;;;1.42;0.80;;;19.60;74.00;;;;;;10518981;28;20056;-74
2021/12/21 14:16:10;;;;;;;1.70;0.80;;;19.50;73.90;;;;;;10501323;28;20672;-72
2021/12/21 14:21:12;;;;;;;1.77;0.80;;;19.50;73.80;;;;;;10532713;28;20055;-72
2021/12/21 14:26:13;;;;;;;1.35;0.68;;;19.50;73.80;;;;;;10531560;28;20052;-75
2021/12/21 14:31:15;;;;;;;1.45;0.98;;;19.50;73.80;;;;;;10532593;28;20047;-74
2021/12/21 14:36:16;;;;;;;1.98;1.10;;;19.40;73.90;;;;;;10531906;28;20055;-73
2021/12/21 14:41:18;;;;;;;1.20;0.90;;;19.50;73.80;;;;;;10512902;28;20489;-72
2021/12/21 14:46:20;;;;;;;1.60;0.80;;;19.60;73.60;;;;;;10527017;28;20786;-76
2021/12/21 14:51:21;;;;;;;1.42;0.73;;;19.70;73.50;;;;;;10523117;28;20093;-76
2021/12/21 14:56:22;;;;;;;1.77;0.93;;;19.80;73.30;;;;;;10514344;28;20051;-75
2021/12/21 15:01:24;;;;;;;1.65;0.65;;;19.90;73.10;;;;;;10521511;28;20045;-74
2021/12/21 15:06:25;;;;;;;2.47;0.70;;;19.90;72.90;;;;;;10524563;28;20048;-76
2021/12/21 15:11:27;;;;;;;1.13;0.70;;;20.00;72.80;;;;;;10537012;28;20063;-75
2021/12/21 15:16:28;;;;;;;0.70;0.55;;;20.00;72.70;;;;;;10510374;28;20048;-75
2021/12/21 15:21:30;;;;;;;1.80;0.80;;;20.10;72.60;;;;;;10526742;28;20058;-80
2021/12/21 15:26:31;;;;;;;1.15;0.80;;;20.10;72.50;;;;;;10529844;28;20048;-78
2021/12/21 15:31:33;;;;;;;1.48;0.90;;;20.10;72.60;;;;;;10532718;28;20044;-76
2021/12/21 15:36:34;;;;;;;3.33;0.90;;;20.10;72.70;;;;;;10536071;28;20051;-76
2021/12/21 15:41:37;;;;;;;1.55;0.80;;;19.90;72.80;;;;;;10536097;28;20449;-76
2021/12/21 15:46:39;;;;;;;2.00;0.70;;;19.80;73.00;;;;;;10535968;28;20412;-76
2021/12/21 15:51:40;;;;;;;1.20;0.70;;;19.60;73.30;;;;;;10535786;28;20521;-72
2021/12/21 15:56:42;;;;;;;1.10;0.70;;;19.50;73.40;;;;;;10535999;28;20497;-74
2021/12/21 16:01:43;;;;;;;2.15;0.77;;;19.40;73.60;;;;;;10503487;28;20044;-76
2021/12/21 16:06:45;;;;;;;2.08;0.90;;;19.30;73.60;;;;;;10535959;28;20040;-75
2021/12/21 16:11:47;;;;;;;0.70;0.50;;;19.20;73.70;;;;;;10535864;28;20415;-74
2021/12/21 16:16:48;;;;;;;1.45;0.80;;;19.10;73.70;;;;;;10540440;28;20048;-75
2021/12/21 16:21:53;;;;;;;1.52;0.90;;;19.00;73.80;;;;;;10543497;28;20048;-75
2021/12/21 16:26:54;;;;;;;2.95;0.80;;;18.90;73.90;;;;;;10543028;28;20091;-75
2021/12/21 16:31:56;;;;;;;1.33;0.77;;;18.80;73.90;;;;;;10543167;28;20048;-75
2021/12/21 16:36:57;;;;;;;1.48;0.82;;;18.70;74.00;;;;;;10517710;28;20044;-75
2021/12/21 16:41:59;;;;;;;2.15;1.10;;;18.60;74.00;;;;;;10500609;28;20531;-74
2021/12/21 16:47:00;;;;;;;1.95;1.00;;;18.50;74.10;;;;;;10500301;28;20516;-75
2021/12/21 16:52:02;;;;;;;1.65;0.90;;;18.50;74.30;;;;;;10500471;28;20052;-74
2021/12/21 16:57:03;;;;;;;1.60;0.75;;;18.40;74.30;;;;;;10500160;28;20481;-74
2021/12/21 17:02:05;;;;;;;1.35;0.90;;;18.30;74.40;;;;;;10499847;28;20485;-74
2021/12/21 17:07:06;;;;;;;2.28;1.10;;;18.20;74.50;;;;;;10499463;28;20057;-74
2021/12/21 17:12:08;;;;;;;1.60;0.93;;;18.20;74.70;;;;;;10499561;28;20044;-74
2021/12/21 17:17:09;;;;;;;1.73;1.00;;;18.10;74.80;;;;;;10499030;28;20102;-74
2021/12/21 17:22:11;;;;;;;1.38;0.98;;;18.00;74.80;;;;;;10499319;28;20052;-74
2021/12/21 17:27:12;;;;;;;1.60;0.90;;;18.00;75.00;;;;;;10498320;28;20051;-74
2021/12/21 17:32:14;;;;;;;2.20;1.13;;;17.90;75.10;;;;;;10498726;28;20067;-74
2021/12/21 17:37:16;;;;;;;1.30;0.90;;;17.80;75.20;;;;;;10498482;28;20056;-74
2021/12/21 17:42:17;;;;;;;2.58;1.10;;;17.70;75.30;;;;;;10498308;28;20105;-74
2021/12/21 17:47:19;;;;;;;1.27;0.98;;;17.70;76.00;;;;;;10497850;28;20049;-74
2021/12/21 17:52:20;;;;;;;2.10;1.08;;;17.60;75.50;;;;;;10497797;28;20051;-74
2021/12/21 17:57:22;;;;;;;1.52;1.00;;;17.60;75.60;;;;;;10497837;28;20056;-74
2021/12/21 18:02:25;;;;;;;2.00;1.10;;;17.50;75.60;;;;;;10497618;28;20071;-74
2021/12/21 18:07:26;;;;;;;2.28;1.10;;;17.50;75.80;;;;;;10496810;28;20056;-74
2021/12/21 18:12:28;;;;;;;1.77;1.25;;;17.40;75.90;;;;;;10496948;28;20051;-74
2021/12/21 18:17:29;;;;;;;2.33;1.23;;;17.30;76.00;;;;;;10496583;28;20048;-74
2021/12/21 18:22:31;;;;;;;2.58;1.10;;;17.30;76.00;;;;;;10496700;28;20456;-74
2021/12/21 18:27:32;;;;;;;2.33;1.20;;;17.20;76.10;;;;;;10496896;28;20410;-74
2021/12/21 18:32:34;;;;;;;1.70;1.15;;;17.20;76.20;;;;;;10496437;28;20045;-74
2021/12/21 18:37:42;;;;;;;1.73;1.30;;;17.10;76.30;;;;;;10495455;28;20052;-74
2021/12/21 18:42:43;;;;;;;1.52;1.15;;;17.10;76.40;;;;;;10496001;28;20101;-74
2021/12/21 18:47:45;;;;;;;2.13;1.20;;;17.00;76.40;;;;;;10495475;28;20057;-74
2021/12/21 18:52:47;;;;;;;1.85;1.55;;;17.00;76.50;;;;;;10495765;28;20044;-74
2021/12/21 18:57:49;;;;;;;2.50;1.45;;;16.90;76.50;;;;;;10495837;28;20102;-74
2021/12/21 19:02:56;;;;;;;2.28;1.50;;;16.90;76.60;;;;;;10495554;28;20060;-74
2021/12/21 19:07:57;;;;;;;2.22;1.50;;;16.80;76.70;;;;;;10495017;28;20083;-74
2021/12/21 19:12:59;;;;;;;2.15;1.35;;;16.80;76.70;;;;;;10495356;28;20044;-74
2021/12/21 19:18:00;;;;;;;2.50;1.60;;;16.70;76.80;;;;;;10494949;28;20048;-74
2021/12/21 19:23:02;;;;;;;2.35;1.40;;;16.70;76.90;;;;;;10495195;28;20047;-74
2021/12/21 19:28:03;;;;;;;2.70;1.30;;;16.60;76.90;;;;;;10494862;28;20123;-74
2021/12/21 19:33:07;;;;;;;2.67;1.70;;;16.60;77.00;;;;;;10495069;28;20049;-74
2021/12/21 19:38:09;;;;;;;3.25;1.52;;;16.50;77.00;;;;;;10494768;28;20045;-74
2021/12/21 19:43:10;;;;;;;2.03;1.50;;;16.50;77.10;;;;;;10495017;28;20044;-74
2021/12/21 19:48:12;;;;;;;3.03;1.70;;;16.40;77.20;;;;;;10495375;28;20052;-74
2021/12/21 19:53:13;;;;;;;2.35;1.65;;;16.40;77.20;;;;;;10502566;28;20055;-74
2021/12/21 19:58:15;;;;;;;2.55;1.67;;;16.30;77.20;;;;;;10502614;28;20048;-73
2021/12/21 20:03:16;;;;;;;3.50;1.75;;;16.30;77.30;;;;;;10502255;28;20493;-74
2021/12/21 20:08:18;;;;;;;2.67;1.90;;;16.30;77.40;;;;;;10501631;28;20123;-74
2021/12/21 20:13:19;;;;;;;2.58;1.88;;;16.20;77.40;;;;;;10501875;28;20045;-74
2021/12/21 20:18:21;;;;;;;2.63;1.77;;;16.20;77.50;;;;;;10501981;28;20052;-74
2021/12/21 20:23:22;;;;;;;1.95;1.63;;;16.10;77.50;;;;;;10501475;28;20106;-74
2021/12/21 20:28:24;;;;;;;3.75;2.17;;;16.10;77.50;;;;;;10501048;28;20075;-73
2021/12/21 20:33:25;;;;;;;2.72;1.85;;;16.00;77.50;;;;;;10501360;28;20431;-74
2021/12/21 20:38:26;;;;;;;3.40;2.15;;;16.00;77.60;;;;;;10500917;28;20417;-74
2021/12/21 20:43:28;;;;;;;3.47;2.10;;;15.90;77.60;;;;;;10500505;28;20419;-73
2021/12/21 20:48:29;;;;;;;1.95;1.75;;;15.90;77.70;;;;;;10500040;28;20406;-74
2021/12/21 20:53:31;;;;;;;3.42;2.20;;;15.80;77.70;;;;;;10500138;28;20044;-74
2021/12/21 20:58:33;;;;;;;3.13;2.40;;;15.80;77.80;;;;;;10500300;28;20459;-74
2021/12/21 21:03:34;;;;;;;2.83;2.10;;;15.80;77.80;;;;;;10499207;28;20072;-74
2021/12/21 21:08:36;;;;;;;3.70;2.40;;;15.70;77.90;;;;;;10499079;28;20053;-74
2021/12/21 21:13:39;;;;;;;3.65;2.40;;;15.70;77.90;;;;;;10499455;28;20474;-73
2021/12/21 21:18:41;;;;;;;4.30;2.40;;;15.70;78.00;;;;;;10499190;28;20055;-74
2021/12/21 21:23:43;;;;;;;3.00;2.28;;;15.60;78.00;;;;;;10499300;28;20044;-73
2021/12/21 21:28:44;;;;;;;3.22;2.35;;;15.60;78.10;;;;;;10499311;28;20048;-73
2021/12/21 21:33:46;;;;;;;3.83;2.40;;;15.50;78.10;;;;;;10498994;28;20058;-73
2021/12/21 21:38:49;;;;;;;3.45;2.40;;;15.50;78.10;;;;;;10498648;28;20048;-74
2021/12/21 21:43:51;;;;;;;3.60;2.50;;;15.40;78.20;;;;;;10498287;28;20113;-74
2021/12/21 21:48:52;;;;;;;3.35;2.33;;;15.40;78.20;;;;;;10498077;28;20055;-74
2021/12/21 21:53:54;;;;;;;3.42;2.55;;;15.40;78.20;;;;;;10497955;28;20041;-74
2021/12/21 21:58:55;;;;;;;3.85;2.50;;;15.40;78.30;;;;;;10497892;28;20040;-73
2021/12/21 22:03:57;;;;;;;3.53;2.50;;;15.30;78.30;;;;;;10497547;28;20056;-74
2021/12/21 22:08:58;;;;;;;3.10;2.50;;;15.30;78.40;;;;;;10519533;28;20044;-73
2021/12/21 22:14:00;;;;;;;3.65;2.65;;;15.20;78.40;;;;;;10538217;28;20403;-73
2021/12/21 22:19:02;;;;;;;3.70;2.70;;;15.20;78.40;;;;;;10538567;28;20048;-73
2021/12/21 22:24:04;;;;;;;3.30;2.38;;;15.10;78.40;;;;;;10538523;28;20560;-73
2021/12/21 22:29:05;;;;;;;3.03;2.50;;;15.10;78.50;;;;;;10535583;28;20048;-73
2021/12/21 22:34:09;;;;;;;3.33;2.63;;;15.10;78.60;;;;;;10496298;28;20485;-74
2021/12/21 22:39:11;;;;;;;3.80;2.50;;;15.00;78.50;;;;;;10496065;28;20048;-74
2021/12/21 22:44:12;;;;;;;3.83;2.65;;;15.00;78.60;;;;;;10496094;28;20071;-73
2021/12/21 22:49:14;;;;;;;3.95;2.90;;;15.00;78.70;;;;;;10495563;28;20394;-73
2021/12/21 22:54:15;;;;;;;3.65;2.67;;;14.90;78.60;;;;;;10495745;28;20486;-73
2021/12/21 22:59:17;;;;;;;5.03;3.03;;;14.90;78.70;;;;;;10495885;28;20051;-73
2021/12/21 23:04:18;;;;;;;3.88;2.88;;;14.90;78.80;;;;;;10495666;28;20055;-73
2021/12/21 23:09:20;;;;;;;4.05;2.90;;;14.80;78.80;;;;;;10494970;28;20513;-74
2021/12/21 23:14:21;;;;;;;3.67;2.70;;;14.80;78.80;;;;;;10495147;28;20413;-74
2021/12/21 23:19:23;;;;;;;3.65;2.83;;;14.70;78.80;;;;;;10495512;28;20496;-73
2021/12/21 23:24:24;;;;;;;3.58;2.80;;;14.70;78.90;;;;;;10494599;28;20520;-73
2021/12/21 23:29:26;;;;;;;3.38;2.80;;;14.70;78.90;;;;;;10495042;28;20509;-73
2021/12/21 23:34:27;;;;;;;3.80;2.60;;;14.70;78.90;;;;;;10494659;28;20075;-73
2021/12/21 23:39:28;;;;;;;3.85;2.88;;;14.60;78.90;;;;;;10494765;28;20055;-73
2021/12/21 23:44:30;;;;;;;3.53;2.90;;;14.60;79.00;;;;;;10494652;28;20056;-73
2021/12/21 23:49:31;;;;;;;4.10;3.13;;;14.60;79.20;;;;;;10494454;28;20052;-74
2021/12/21 23:54:33;;;;;;;3.67;2.70;;;14.50;79.00;;;;;;10494517;28;20040;-74
2021/12/21 23:59:34;;;;;;;3.88;2.83;;;14.50;79.00;;;;;;10494221;28;20049;-72
